Decoded Metar for KBBG ( in _UNIDENTIFIED) (IATA:N/A) | Meteo·Mobile Aviation Weather
aviador You're here:

KBBG Decoded Metar

in _UNIDENTIFIED
Report Time2019-02-16 06:35:00
UTC Time2019-02-16 06:59:38
Flight Rules ifr IFR
Wind010° at 05 kt
W.Decomp.*RWY 32: 3.3 kt HW 3.7 kt RCW
W.Rank010° ranks 29
Current wind is below 010° avg. (6.4)
Visibility4828 m
Phenomena:Mist
Clouds:Overcast 005 Hf
Ceiling500 ft
Temp-5°C (ISA -17)
Dew Point-5°C (100% RH)
AAT-9.4°C
QNH1016 hPa
Density Alt-883 ft
Elevation1,302 ft
Report Wrong Elevation
Raw Report
KBBG 160635Z AUTO 01005KT 3SM BR OVC005 M05/M05 A3001 RMK AO2=

Extra information for KBBG:More info

Metar Taf Metar & Taf Last 4 Metars F.Rules Stats Wind Profile Meteogram Temp Stats Metar ALERT Operation Metar Decoded Social comments